createdAt,value
2023-01-18T00:01:32.112Z,13.43
2023-01-18T00:04:48.854Z,9.10
2023-01-18T00:08:05.292Z,8.78
2023-01-18T00:11:24.141Z,7.85
2023-01-18T00:14:41.187Z,9.08
2023-01-18T00:17:57.707Z,9.83
2023-01-18T00:21:17.712Z,7.23
2023-01-18T00:24:33.840Z,7.95
2023-01-18T00:27:56.486Z,9.45
2023-01-18T00:31:18.485Z,9.23
2023-01-18T00:34:38.321Z,9.45
2023-01-18T00:41:08.902Z,8.58
2023-01-18T00:44:26.153Z,8.88
2023-01-18T00:47:42.230Z,7.48
2023-01-18T00:50:58.383Z,7.43
2023-01-18T00:54:15.101Z,8.65
2023-01-18T00:57:31.390Z,8.25
2023-01-18T01:00:47.956Z,7.75
2023-01-18T01:04:18.603Z,9.83
2023-01-18T01:07:36.441Z,9.85
2023-01-18T01:10:54.656Z,9.40
2023-01-18T01:14:25.480Z,8.85
2023-01-18T01:18:00.473Z,10.33
2023-01-18T01:21:31.094Z,9.75
2023-01-18T01:25:01.819Z,7.50
2023-01-18T01:28:18.474Z,9.25
2023-01-18T01:31:36.395Z,7.40
2023-01-18T01:34:53.205Z,8.03
2023-01-18T01:38:09.590Z,6.33
2023-01-18T01:41:31.095Z,6.28
2023-01-18T01:45:03.604Z,8.63
2023-01-18T01:48:21.823Z,7.15
2023-01-18T01:51:40.792Z,6.20
2023-01-18T01:55:02.512Z,6.00
2023-01-18T01:58:23.309Z,5.55
2023-01-18T02:01:43.179Z,5.60
2023-01-18T02:05:01.526Z,6.73
2023-01-18T02:08:22.853Z,7.45
2023-01-18T02:11:39.813Z,7.05
2023-01-18T02:14:59.697Z,7.90
2023-01-18T02:18:28.166Z,8.23
2023-01-18T02:21:49.810Z,8.03
2023-01-18T02:25:52.121Z,7.50
2023-01-18T02:29:14.282Z,8.98
2023-01-18T02:32:41.917Z,9.13
2023-01-18T02:36:03.310Z,9.98
2023-01-18T02:39:27.389Z,9.90
2023-01-18T02:42:59.469Z,11.53
2023-01-18T02:46:34.288Z,11.73
2023-01-18T02:49:50.580Z,11.90
2023-01-18T02:53:07.231Z,8.95
2023-01-18T02:56:28.049Z,8.85
2023-01-18T02:59:48.108Z,8.75
2023-01-18T03:03:06.528Z,8.48
2023-01-18T03:06:25.734Z,8.40
2023-01-18T03:09:42.527Z,7.08
2023-01-18T03:13:04.598Z,9.05
2023-01-18T03:16:26.964Z,9.30
2023-01-18T03:20:12.745Z,7.98
2023-01-18T03:23:46.566Z,8.60
2023-01-18T03:27:22.002Z,7.68
2023-01-18T03:30:56.227Z,7.95
2023-01-18T03:34:19.097Z,8.03
2023-01-18T03:37:38.906Z,9.08
2023-01-18T03:40:55.948Z,8.65
2023-01-18T03:44:16.946Z,8.33
2023-01-18T03:47:35.382Z,8.10
2023-01-18T03:50:56.315Z,8.97
2023-01-18T03:54:17.119Z,8.38
2023-01-18T03:57:40.202Z,10.38
2023-01-18T04:00:58.792Z,9.35
2023-01-18T04:04:15.998Z,8.93
2023-01-18T04:07:32.757Z,7.90
2023-01-18T04:10:50.561Z,8.43
2023-01-18T04:14:07.071Z,8.70
2023-01-18T04:17:23.794Z,9.20
2023-01-18T04:20:40.230Z,8.58
2023-01-18T04:23:56.556Z,9.60
2023-01-18T04:27:14.234Z,8.10
2023-01-18T04:31:35.522Z,7.63
2023-01-18T04:35:10.844Z,7.28
2023-01-18T04:38:30.330Z,8.98
2023-01-18T04:41:47.836Z,9.23
2023-01-18T04:45:05.668Z,10.40
2023-01-18T04:48:22.093Z,11.33
2023-01-18T04:51:38.630Z,10.73
2023-01-18T04:54:55.125Z,11.28
2023-01-18T04:58:11.770Z,12.40
2023-01-18T05:01:34.320Z,12.28
2023-01-18T05:04:51.135Z,12.48
2023-01-18T05:08:07.978Z,13.20
2023-01-18T05:11:28.092Z,12.33
2023-01-18T05:14:44.879Z,15.10
2023-01-18T05:18:07.965Z,15.23
2023-01-18T05:21:24.908Z,16.75
2023-01-18T05:24:51.169Z,17.70
2023-01-18T05:28:07.575Z,17.85
2023-01-18T05:31:25.073Z,18.78
2023-01-18T05:34:41.895Z,16.98
2023-01-18T05:37:58.839Z,19.33
2023-01-18T05:41:15.929Z,14.20
2023-01-18T05:44:32.719Z,14.60
2023-01-18T05:47:51.998Z,12.85
2023-01-18T05:51:10.200Z,13.90
2023-01-18T05:54:26.698Z,14.15
2023-01-18T05:57:44.642Z,17.25
2023-01-18T06:01:03.672Z,17.35
2023-01-18T06:04:21.194Z,16.85
2023-01-18T06:07:38.807Z,17.88
2023-01-18T06:11:02.642Z,16.53
2023-01-18T06:14:19.052Z,22.15
2023-01-18T06:17:36.731Z,18.03
2023-01-18T06:20:53.656Z,19.25
2023-01-18T06:24:10.911Z,21.43
2023-01-18T06:27:27.346Z,18.65
2023-01-18T06:30:43.960Z,17.18
2023-01-18T06:34:01.194Z,21.30
2023-01-18T06:37:17.945Z,26.20
2023-01-18T06:40:34.717Z,25.23
2023-01-18T06:43:51.358Z,23.00
2023-01-18T06:47:07.937Z,29.28
2023-01-18T06:50:27.087Z,23.85
2023-01-18T06:53:43.211Z,30.85
2023-01-18T06:56:59.495Z,24.00
2023-01-18T07:00:19.275Z,22.88
2023-01-18T07:03:39.586Z,26.50
2023-01-18T07:06:57.254Z,26.75
2023-01-18T07:10:16.775Z,26.03
2023-01-18T07:13:33.645Z,27.80
2023-01-18T07:16:50.371Z,25.30
2023-01-18T07:20:06.981Z,22.60
2023-01-18T07:23:24.057Z,28.15
2023-01-18T07:26:41.225Z,22.13
2023-01-18T07:29:57.611Z,25.95
2023-01-18T07:33:14.586Z,22.98
2023-01-18T07:36:31.513Z,24.48
2023-01-18T07:39:47.990Z,23.70
2023-01-18T07:43:08.122Z,23.25
2023-01-18T07:46:26.940Z,26.73
2023-01-18T07:49:44.550Z,26.98
2023-01-18T07:53:02.863Z,30.03
2023-01-18T07:56:26.066Z,29.40
2023-01-18T07:59:43.733Z,26.95
2023-01-18T08:03:03.465Z,23.58
2023-01-18T08:06:25.831Z,24.35
2023-01-18T08:09:45.900Z,24.85
2023-01-18T08:13:08.871Z,27.05
2023-01-18T08:16:29.111Z,27.75
2023-01-18T08:19:46.921Z,25.38
2023-01-18T08:23:07.053Z,29.50
2023-01-18T08:26:23.717Z,26.33
2023-01-18T08:29:42.943Z,26.05
2023-01-18T08:33:05.951Z,25.25
2023-01-18T08:36:29.253Z,24.70
2023-01-18T08:39:46.751Z,26.43
2023-01-18T08:43:10.888Z,25.75
2023-01-18T08:46:28.344Z,25.25
2023-01-18T08:49:45.888Z,23.85
2023-01-18T08:53:06.590Z,23.90
2023-01-18T08:56:24.417Z,26.38
2023-01-18T08:59:43.918Z,26.18
2023-01-18T09:06:19.867Z,22.30
2023-01-18T09:09:36.107Z,19.15
2023-01-18T09:12:53.739Z,21.53
2023-01-18T09:16:15.101Z,21.73
2023-01-18T09:19:33.778Z,19.60
2023-01-18T09:22:50.049Z,22.30
2023-01-18T09:26:16.703Z,24.45
2023-01-18T09:29:32.916Z,18.18
2023-01-18T09:32:49.109Z,17.93
2023-01-18T09:36:10.486Z,19.95
2023-01-18T09:39:27.596Z,17.13
2023-01-18T09:42:47.767Z,16.85
2023-01-18T09:46:04.595Z,16.35
2023-01-18T09:49:27.623Z,15.65
2023-01-18T09:52:53.498Z,16.08
2023-01-18T09:56:16.648Z,16.98
2023-01-18T09:59:37.357Z,17.18
2023-01-18T10:02:56.117Z,17.65
2023-01-18T10:06:16.985Z,17.30
2023-01-18T10:09:38.116Z,17.85
2023-01-18T10:13:00.417Z,15.15
2023-01-18T10:16:21.695Z,17.08
2023-01-18T10:19:39.925Z,19.35
2023-01-18T10:23:01.303Z,69.30
2023-01-18T10:26:22.238Z,30.88
2023-01-18T10:29:49.656Z,23.45
2023-01-18T10:33:10.956Z,21.33
2023-01-18T10:36:33.545Z,21.85
2023-01-18T10:39:55.221Z,20.70
2023-01-18T10:43:16.075Z,18.78
2023-01-18T10:46:32.708Z,16.30
2023-01-18T10:49:52.304Z,19.73
2023-01-18T10:53:36.910Z,19.83
2023-01-18T10:56:53.955Z,24.13
2023-01-18T11:00:14.955Z,25.38
2023-01-18T11:03:32.200Z,27.68
2023-01-18T11:06:58.993Z,27.75
2023-01-18T11:10:26.531Z,26.43
2023-01-18T11:13:48.308Z,28.70
2023-01-18T11:17:18.035Z,29.73
2023-01-18T11:20:49.227Z,53.13
2023-01-18T11:24:06.223Z,63.23
2023-01-18T11:27:28.122Z,36.90
2023-01-18T11:30:48.544Z,30.78
2023-01-18T11:34:26.232Z,31.30
2023-01-18T11:37:45.869Z,31.28
2023-01-18T11:41:22.527Z,25.83
2023-01-18T11:44:44.054Z,29.55
2023-01-18T11:51:27.318Z,27.43
2023-01-18T11:54:47.904Z,30.83
2023-01-18T11:58:06.113Z,28.68
2023-01-18T12:01:34.251Z,28.73
2023-01-18T12:05:01.721Z,29.65
2023-01-18T12:08:55.755Z,32.10
2023-01-18T12:12:36.342Z,29.95
2023-01-18T12:16:10.484Z,31.55
2023-01-18T12:20:09.089Z,27.48
2023-01-18T12:23:53.619Z,27.07
2023-01-18T12:27:14.679Z,26.65
2023-01-18T12:30:51.171Z,27.08
2023-01-18T12:34:22.792Z,21.83
2023-01-18T12:37:46.888Z,22.00
2023-01-18T12:41:32.298Z,23.18
2023-01-18T12:45:08.070Z,18.88
2023-01-18T12:48:41.255Z,20.20
2023-01-18T12:52:17.659Z,20.55
2023-01-18T12:55:29.884Z,19.48
2023-01-18T12:58:47.893Z,21.08
2023-01-18T13:02:10.263Z,19.50
2023-01-18T13:05:37.853Z,20.78
2023-01-18T13:08:59.238Z,19.68
2023-01-18T13:12:17.466Z,19.65
2023-01-18T13:15:41.587Z,21.50
2023-01-18T13:19:06.049Z,21.33
2023-01-18T13:22:29.405Z,20.58
2023-01-18T13:25:56.683Z,21.83
2023-01-18T13:29:31.822Z,21.45
2023-01-18T13:32:50.326Z,23.83
2023-01-18T13:42:53.571Z,22.80
2023-01-18T13:46:24.935Z,23.25
2023-01-18T13:49:52.445Z,22.53
2023-01-18T13:53:31.773Z,22.78
2023-01-18T13:57:05.527Z,22.95
2023-01-18T14:00:34.132Z,21.38
2023-01-18T14:03:54.305Z,20.93
2023-01-18T14:07:15.713Z,23.33
2023-01-18T14:10:39.276Z,17.45
2023-01-18T14:14:29.336Z,21.63
2023-01-18T14:17:58.306Z,16.53
2023-01-18T14:21:25.225Z,16.60
2023-01-18T14:24:57.423Z,16.85
2023-01-18T14:28:23.068Z,15.05
2023-01-18T14:31:47.155Z,13.13
2023-01-18T14:38:23.601Z,14.88
2023-01-18T14:41:42.356Z,14.58
2023-01-18T14:44:59.574Z,17.28
2023-01-18T14:48:29.402Z,17.43
2023-01-18T14:51:49.283Z,17.30
2023-01-18T14:55:06.583Z,16.65
2023-01-18T14:58:26.296Z,18.38
2023-01-18T15:01:45.760Z,22.20
2023-01-18T15:05:17.885Z,62.25
2023-01-18T15:08:38.576Z,28.45
2023-01-18T15:11:55.963Z,22.00
2023-01-18T15:15:18.683Z,22.03
2023-01-18T15:18:37.184Z,21.60
2023-01-18T15:21:53.636Z,25.03
2023-01-18T15:25:12.758Z,21.43
2023-01-18T15:28:30.544Z,23.45
2023-01-18T15:31:55.932Z,23.15
2023-01-18T15:35:15.186Z,22.98
2023-01-18T15:38:35.085Z,22.05
2023-01-18T15:41:52.834Z,21.40
2023-01-18T15:45:09.903Z,21.70
2023-01-18T15:48:30.014Z,20.45
2023-01-18T15:52:03.748Z,18.98
2023-01-18T15:55:32.014Z,18.83
2023-01-18T15:58:55.487Z,20.88
2023-01-18T16:02:26.097Z,19.60
2023-01-18T16:05:43.001Z,19.05
2023-01-18T16:09:14.952Z,19.13
2023-01-18T16:12:43.964Z,18.93
2023-01-18T16:16:20.357Z,17.13
2023-01-18T16:19:40.712Z,17.45
2023-01-18T16:22:59.996Z,15.95
2023-01-18T16:26:18.870Z,15.35
2023-01-18T16:29:36.170Z,15.30
2023-01-18T16:32:53.182Z,14.65
2023-01-18T16:36:19.262Z,14.38
2023-01-18T16:39:38.083Z,14.73
2023-01-18T16:43:16.357Z,15.05
2023-01-18T16:46:33.964Z,15.10
2023-01-18T16:49:50.457Z,15.15
2023-01-18T16:53:06.818Z,17.48
2023-01-18T16:56:27.336Z,18.10
2023-01-18T16:59:43.839Z,15.90
2023-01-18T17:03:00.448Z,18.35
2023-01-18T17:06:24.115Z,39.30
2023-01-18T17:09:48.726Z,24.15
2023-01-18T17:13:01.457Z,20.93
2023-01-18T17:16:24.520Z,17.33
2023-01-18T17:19:43.919Z,17.48
2023-01-18T17:23:01.795Z,17.88
2023-01-18T17:26:21.795Z,22.20
2023-01-18T17:29:38.074Z,18.80
2023-01-18T17:32:55.800Z,18.50
2023-01-18T17:36:13.848Z,16.53
2023-01-18T17:39:43.370Z,19.18
2023-01-18T17:42:52.633Z,19.83
2023-01-18T17:46:11.975Z,18.28
2023-01-18T17:49:28.810Z,21.35
2023-01-18T17:52:46.190Z,22.43
2023-01-18T17:56:02.770Z,21.38
2023-01-18T17:59:19.620Z,22.08
2023-01-18T18:02:36.167Z,21.55
2023-01-18T18:05:56.611Z,23.78
2023-01-18T18:09:14.472Z,21.68
2023-01-18T18:12:32.063Z,20.73
2023-01-18T18:15:52.877Z,19.10
2023-01-18T18:19:09.487Z,14.40
2023-01-18T18:22:29.517Z,14.10
2023-01-18T18:25:48.365Z,13.30
2023-01-18T18:29:05.011Z,10.40
2023-01-18T18:32:30.964Z,9.68
2023-01-18T18:35:49.921Z,9.88
2023-01-18T18:39:09.431Z,11.53
2023-01-18T18:42:27.973Z,6.98
2023-01-18T18:45:44.534Z,8.68
2023-01-18T18:49:16.315Z,8.58
2023-01-18T18:52:37.165Z,7.43
2023-01-18T18:55:53.760Z,8.18
2023-01-18T18:59:15.523Z,11.53
2023-01-18T19:02:35.016Z,26.90
2023-01-18T19:05:57.710Z,8.18
2023-01-18T19:09:14.338Z,7.00
2023-01-18T19:12:34.967Z,9.45
2023-01-18T19:15:59.561Z,8.05
2023-01-18T19:19:16.231Z,7.53
2023-01-18T19:22:32.707Z,7.25
2023-01-18T19:25:54.900Z,8.25
2023-01-18T19:29:12.240Z,7.33
2023-01-18T19:32:29.685Z,8.48
2023-01-18T19:35:50.087Z,10.45
2023-01-18T19:39:14.691Z,8.70
2023-01-18T19:42:27.610Z,7.90
2023-01-18T19:45:55.174Z,7.73
2023-01-18T19:49:12.141Z,8.83
2023-01-18T19:52:30.143Z,13.85
2023-01-18T19:55:56.900Z,11.15
2023-01-18T19:59:15.547Z,7.80
2023-01-18T20:02:40.170Z,8.70
2023-01-18T20:06:57.248Z,8.68
2023-01-18T20:10:21.018Z,7.03
2023-01-18T20:13:43.032Z,8.55
2023-01-18T20:17:06.201Z,9.13
2023-01-18T20:20:32.435Z,16.15
2023-01-18T20:24:03.442Z,11.68
2023-01-18T20:27:22.308Z,11.63
2023-01-18T20:30:40.076Z,10.98
2023-01-18T20:33:56.943Z,12.98
2023-01-18T20:37:23.272Z,12.98
2023-01-18T20:40:44.730Z,14.45
2023-01-18T20:44:03.960Z,13.73
2023-01-18T20:51:06.190Z,13.15
2023-01-18T20:54:29.747Z,15.90
2023-01-18T20:57:57.322Z,13.88
2023-01-18T21:01:20.962Z,13.78
2023-01-18T21:04:37.862Z,15.80
2023-01-18T21:07:54.465Z,15.58
2023-01-18T21:11:13.683Z,17.60
2023-01-18T21:14:30.515Z,16.30
2023-01-18T21:17:47.585Z,16.48
2023-01-18T21:21:05.926Z,17.65
2023-01-18T21:24:24.653Z,14.00
2023-01-18T21:27:43.333Z,16.70
2023-01-18T21:31:02.456Z,15.50
2023-01-18T21:34:21.490Z,23.95
2023-01-18T21:37:40.839Z,25.95
2023-01-18T21:41:03.793Z,26.33
2023-01-18T21:44:35.984Z,24.80
2023-01-18T21:47:52.630Z,27.20
2023-01-18T21:51:25.632Z,28.18
2023-01-18T21:54:42.507Z,29.10
2023-01-18T21:58:09.634Z,27.53
2023-01-18T22:01:31.691Z,30.20
2023-01-18T22:05:04.810Z,32.28
2023-01-18T22:08:21.325Z,28.63
2023-01-18T22:11:38.001Z,35.43
2023-01-18T22:14:54.629Z,29.75
2023-01-18T22:18:11.146Z,29.13
2023-01-18T22:21:28.500Z,28.10
2023-01-18T22:24:45.177Z,26.48
2023-01-18T22:28:01.866Z,28.83
2023-01-18T22:31:19.117Z,28.90
2023-01-18T22:34:35.857Z,30.58
2023-01-18T22:37:52.326Z,28.08
2023-01-18T22:41:19.086Z,30.20
2023-01-18T22:44:35.858Z,28.83
2023-01-18T22:47:52.505Z,27.35
2023-01-18T22:51:11.568Z,23.98
2023-01-18T22:54:29.330Z,25.80
2023-01-18T22:57:45.566Z,27.33
2023-01-18T23:01:02.882Z,29.30
2023-01-18T23:04:19.644Z,28.55
2023-01-18T23:07:36.030Z,27.93
2023-01-18T23:10:52.465Z,27.53
2023-01-18T23:14:22.589Z,25.10
2023-01-18T23:17:46.045Z,30.73
2023-01-18T23:21:08.306Z,29.05
2023-01-18T23:24:37.456Z,30.50
2023-01-18T23:31:07.616Z,29.48
2023-01-18T23:34:24.105Z,29.83
2023-01-18T23:37:41.033Z,29.28
2023-01-18T23:41:11.582Z,28.90
2023-01-18T23:44:42.599Z,27.20
2023-01-18T23:48:13.624Z,30.15
2023-01-18T23:51:43.765Z,29.33
2023-01-18T23:55:00.122Z,28.43
2023-01-18T23:58:17.052Z,30.65
